createdAt,value
2022-07-29T00:00:56.719Z,18.14
2022-07-29T00:03:24.515Z,18.13
2022-07-29T00:05:53.004Z,18.11
2022-07-29T00:08:21.112Z,18.10
2022-07-29T00:10:50.098Z,18.08
2022-07-29T00:13:17.854Z,18.06
2022-07-29T00:15:46.254Z,18.04
2022-07-29T00:18:13.931Z,18.01
2022-07-29T00:20:41.530Z,17.98
2022-07-29T00:23:09.199Z,17.96
2022-07-29T00:25:41.604Z,17.92
2022-07-29T00:28:10.603Z,17.89
2022-07-29T00:30:38.458Z,17.87
2022-07-29T00:33:09.124Z,17.83
2022-07-29T00:35:45.112Z,17.81
2022-07-29T00:38:13.886Z,17.74
2022-07-29T00:40:43.279Z,17.70
2022-07-29T00:43:14.575Z,17.66
2022-07-29T00:45:42.491Z,17.61
2022-07-29T00:48:10.352Z,17.58
2022-07-29T00:50:38.720Z,17.55
2022-07-29T00:53:08.278Z,17.51
2022-07-29T00:55:36.806Z,17.49
2022-07-29T00:58:05.407Z,17.46
2022-07-29T01:00:34.477Z,17.43
2022-07-29T01:03:02.370Z,17.40
2022-07-29T01:05:50.143Z,17.36
2022-07-29T01:08:20.113Z,17.33
2022-07-29T01:10:48.881Z,17.31
2022-07-29T01:13:17.553Z,17.29
2022-07-29T01:15:51.437Z,17.28
2022-07-29T01:18:24.358Z,17.25
2022-07-29T01:21:18.390Z,17.23
2022-07-29T01:24:11.323Z,17.21
2022-07-29T01:26:48.837Z,17.19
2022-07-29T01:29:26.537Z,17.19
2022-07-29T01:32:01.348Z,17.20
2022-07-29T01:34:40.307Z,17.14
2022-07-29T01:37:17.392Z,17.14
2022-07-29T01:39:48.175Z,17.11
2022-07-29T01:42:22.005Z,17.12
2022-07-29T01:44:57.711Z,17.10
2022-07-29T01:47:31.104Z,17.08
2022-07-29T01:50:01.959Z,17.07
2022-07-29T01:52:35.767Z,17.06
2022-07-29T01:55:09.673Z,17.05
2022-07-29T01:57:40.164Z,17.03
2022-07-29T02:00:11.633Z,17.03
2022-07-29T02:02:45.831Z,17.01
2022-07-29T02:05:16.847Z,17.00
2022-07-29T02:07:46.367Z,16.99
2022-07-29T02:10:15.112Z,16.98
2022-07-29T02:12:48.634Z,16.96
2022-07-29T02:15:23.712Z,16.94
2022-07-29T02:17:56.967Z,16.92
2022-07-29T02:20:27.121Z,16.90
2022-07-29T02:22:56.234Z,16.88
2022-07-29T02:25:36.755Z,16.85
2022-07-29T02:28:07.051Z,16.85
2022-07-29T02:30:41.019Z,16.81
2022-07-29T02:33:10.475Z,16.79
2022-07-29T02:35:39.147Z,16.79
2022-07-29T02:38:25.162Z,16.76
2022-07-29T02:40:55.220Z,16.71
2022-07-29T02:43:24.551Z,16.67
2022-07-29T02:45:56.982Z,16.65
2022-07-29T02:48:29.812Z,16.63
2022-07-29T02:51:06.926Z,16.63
2022-07-29T02:53:36.318Z,16.63
2022-07-29T02:56:10.084Z,16.61
2022-07-29T02:58:42.455Z,16.60
2022-07-29T03:01:20.992Z,16.58
2022-07-29T03:03:51.314Z,16.58
2022-07-29T03:06:30.983Z,16.59
2022-07-29T03:09:12.482Z,16.58
2022-07-29T03:11:49.900Z,16.56
2022-07-29T03:14:21.268Z,16.55
2022-07-29T03:16:51.727Z,16.54
2022-07-29T03:19:19.898Z,16.53
2022-07-29T03:21:47.823Z,16.52
2022-07-29T03:24:27.449Z,16.50
2022-07-29T03:26:57.161Z,16.48
2022-07-29T03:29:24.802Z,16.48
2022-07-29T03:32:04.401Z,16.46
2022-07-29T03:34:35.950Z,16.45
2022-07-29T03:37:03.582Z,16.43
2022-07-29T03:39:35.139Z,16.41
2022-07-29T03:42:03.776Z,16.41
2022-07-29T03:44:34.395Z,16.39
2022-07-29T03:47:05.111Z,16.39
2022-07-29T03:49:34.224Z,16.39
2022-07-29T03:52:02.359Z,16.38
2022-07-29T03:54:30.002Z,16.38
2022-07-29T03:57:01.463Z,16.38
2022-07-29T03:59:29.957Z,16.39
2022-07-29T04:01:59.048Z,16.37
2022-07-29T04:04:28.635Z,16.36
2022-07-29T04:06:56.437Z,16.35
2022-07-29T04:09:24.459Z,16.36
2022-07-29T04:12:02.523Z,16.36
2022-07-29T04:14:32.644Z,16.37
2022-07-29T04:17:00.250Z,16.37
2022-07-29T04:19:29.309Z,16.38
2022-07-29T04:21:57.925Z,16.38
2022-07-29T04:24:25.774Z,16.39
2022-07-29T04:26:53.487Z,16.40
2022-07-29T04:29:21.488Z,16.40
2022-07-29T04:31:49.383Z,16.41
2022-07-29T04:34:17.400Z,16.41
2022-07-29T04:36:47.078Z,16.43
2022-07-29T04:39:19.307Z,16.44
2022-07-29T04:41:51.029Z,16.46
2022-07-29T04:44:20.230Z,16.47
2022-07-29T04:46:48.305Z,16.48
2022-07-29T04:49:15.994Z,16.51
2022-07-29T04:51:43.641Z,16.52
2022-07-29T04:54:12.884Z,16.54
2022-07-29T04:56:40.986Z,16.56
2022-07-29T04:59:08.643Z,16.58
2022-07-29T05:01:36.475Z,16.62
2022-07-29T05:04:04.455Z,16.64
2022-07-29T05:06:32.023Z,16.66
2022-07-29T05:08:59.714Z,16.69
2022-07-29T05:11:30.530Z,16.72
2022-07-29T05:13:58.393Z,16.76
2022-07-29T05:16:26.136Z,16.76
2022-07-29T05:18:53.813Z,16.80
2022-07-29T05:21:21.379Z,16.85
2022-07-29T05:23:49.065Z,16.88
2022-07-29T05:26:16.681Z,16.90
2022-07-29T05:28:45.681Z,16.93
2022-07-29T05:31:15.468Z,16.96
2022-07-29T05:33:43.193Z,17.00
2022-07-29T05:36:10.774Z,17.04
2022-07-29T05:38:38.431Z,17.08
2022-07-29T05:41:06.515Z,17.11
2022-07-29T05:43:34.190Z,17.18
2022-07-29T05:46:03.274Z,17.22
2022-07-29T05:48:31.037Z,17.27
2022-07-29T05:50:58.682Z,17.30
2022-07-29T05:53:26.372Z,17.34
2022-07-29T05:55:54.141Z,17.38
2022-07-29T05:58:21.789Z,17.41
2022-07-29T06:00:49.519Z,17.45
2022-07-29T06:03:18.601Z,17.48
2022-07-29T06:05:46.494Z,17.51
2022-07-29T06:08:14.090Z,17.52
2022-07-29T06:10:41.701Z,17.57
2022-07-29T06:13:09.309Z,17.58
2022-07-29T06:15:37.093Z,17.60
2022-07-29T06:18:04.982Z,17.63
2022-07-29T06:20:34.004Z,17.64
2022-07-29T06:23:01.891Z,17.69
2022-07-29T06:25:31.154Z,17.72
2022-07-29T06:27:58.807Z,17.72
2022-07-29T06:30:26.597Z,17.73
2022-07-29T06:32:54.312Z,17.78
2022-07-29T06:35:39.354Z,17.83
2022-07-29T06:38:30.406Z,17.92
2022-07-29T06:41:03.829Z,17.94
2022-07-29T06:43:34.781Z,17.98
2022-07-29T06:46:04.945Z,18.05
2022-07-29T06:48:32.979Z,18.12
2022-07-29T06:51:01.270Z,18.19
2022-07-29T06:53:30.984Z,18.23
2022-07-29T06:55:59.161Z,18.29
2022-07-29T06:58:27.032Z,18.26
2022-07-29T07:00:58.229Z,18.30
2022-07-29T07:03:26.720Z,18.35
2022-07-29T07:05:55.577Z,18.39
2022-07-29T07:08:24.536Z,18.46
2022-07-29T07:10:54.234Z,18.48
2022-07-29T07:13:21.811Z,18.52
2022-07-29T07:15:49.711Z,18.55
2022-07-29T07:18:17.834Z,18.56
2022-07-29T07:20:46.028Z,18.62
2022-07-29T07:23:13.685Z,18.64
2022-07-29T07:25:41.438Z,18.68
2022-07-29T07:28:10.575Z,18.78
2022-07-29T07:30:38.402Z,18.93
2022-07-29T07:33:06.066Z,19.12
2022-07-29T07:35:33.867Z,19.13
2022-07-29T07:38:01.642Z,19.17
2022-07-29T07:40:29.324Z,19.25
2022-07-29T07:42:56.933Z,19.35
2022-07-29T07:45:26.358Z,19.38
2022-07-29T07:47:54.087Z,19.42
2022-07-29T07:50:21.725Z,19.49
2022-07-29T07:52:51.601Z,19.56
2022-07-29T07:55:19.979Z,19.65
2022-07-29T07:57:47.791Z,19.73
2022-07-29T08:00:16.895Z,19.78
2022-07-29T08:02:46.319Z,19.87
2022-07-29T08:05:17.738Z,19.89
2022-07-29T08:07:47.109Z,20.01
2022-07-29T08:10:15.247Z,19.95
2022-07-29T08:12:43.675Z,20.02
2022-07-29T08:15:11.535Z,20.09
2022-07-29T08:17:39.129Z,20.14
2022-07-29T08:20:08.744Z,20.17
2022-07-29T08:22:36.453Z,20.19
2022-07-29T08:25:04.357Z,20.20
2022-07-29T08:27:43.533Z,20.24
2022-07-29T08:30:12.331Z,20.28
2022-07-29T08:32:55.994Z,20.33
2022-07-29T08:35:27.924Z,20.30
2022-07-29T08:37:57.783Z,20.32
2022-07-29T08:40:32.116Z,20.33
2022-07-29T08:43:01.170Z,20.35
2022-07-29T08:45:31.354Z,20.35
2022-07-29T08:47:59.017Z,20.37
2022-07-29T08:50:28.043Z,20.41
2022-07-29T08:52:59.745Z,20.50
2022-07-29T08:55:28.708Z,20.56
2022-07-29T08:57:57.328Z,20.65
2022-07-29T09:00:27.068Z,20.65
2022-07-29T09:02:59.647Z,20.61
2022-07-29T09:05:30.387Z,20.69
2022-07-29T09:07:58.461Z,20.74
2022-07-29T09:10:26.191Z,20.79
2022-07-29T09:12:54.166Z,20.84
2022-07-29T09:15:21.851Z,20.92
2022-07-29T09:17:51.206Z,20.90
2022-07-29T09:20:21.019Z,20.82
2022-07-29T09:22:51.764Z,20.81
2022-07-29T09:25:34.221Z,20.72
2022-07-29T09:28:08.633Z,20.63
2022-07-29T09:30:36.889Z,20.56
2022-07-29T09:33:05.595Z,20.51
2022-07-29T09:35:33.522Z,20.51
2022-07-29T09:38:12.095Z,20.59
2022-07-29T09:40:40.217Z,20.58
2022-07-29T09:43:15.089Z,20.62
2022-07-29T09:45:42.766Z,20.71
2022-07-29T09:48:18.171Z,20.86
2022-07-29T09:50:47.838Z,20.85
2022-07-29T09:53:32.445Z,20.88
2022-07-29T09:56:00.590Z,20.88
2022-07-29T09:58:29.069Z,20.91
2022-07-29T10:00:57.675Z,20.97
2022-07-29T10:03:25.953Z,20.98
2022-07-29T10:06:08.485Z,21.07
2022-07-29T10:08:38.282Z,21.16
2022-07-29T10:11:14.061Z,21.19
2022-07-29T10:13:42.989Z,21.24
2022-07-29T10:16:11.018Z,21.33
2022-07-29T10:18:40.811Z,21.41
2022-07-29T10:21:09.007Z,21.50
2022-07-29T10:23:46.594Z,21.57
2022-07-29T10:26:15.379Z,21.70
2022-07-29T10:28:43.216Z,21.81
2022-07-29T10:31:21.248Z,21.89
2022-07-29T10:33:59.093Z,21.93
2022-07-29T10:36:49.306Z,21.99
2022-07-29T10:39:41.685Z,22.06
2022-07-29T10:42:20.022Z,22.13
2022-07-29T10:44:48.713Z,22.23
2022-07-29T10:47:24.167Z,22.20
2022-07-29T10:50:01.368Z,22.18
2022-07-29T10:52:57.473Z,22.25
2022-07-29T10:55:43.779Z,22.29
2022-07-29T10:58:18.223Z,22.17
2022-07-29T11:00:49.467Z,22.15
2022-07-29T11:03:50.421Z,22.02
2022-07-29T11:06:26.999Z,21.89
2022-07-29T11:09:20.214Z,21.73
2022-07-29T11:11:54.878Z,21.56
2022-07-29T11:14:58.484Z,21.41
2022-07-29T11:17:26.261Z,21.30
2022-07-29T11:20:34.948Z,21.20
2022-07-29T11:23:21.248Z,21.20
2022-07-29T11:26:21.064Z,20.82
2022-07-29T11:28:59.739Z,20.69
2022-07-29T11:31:40.210Z,20.60
2022-07-29T11:34:22.716Z,20.45
2022-07-29T11:37:20.038Z,20.31
2022-07-29T11:40:21.442Z,20.23
2022-07-29T11:42:51.824Z,20.17
2022-07-29T11:45:42.916Z,20.25
2022-07-29T11:48:29.686Z,20.12
2022-07-29T11:51:01.438Z,20.05
2022-07-29T11:53:32.861Z,19.94
2022-07-29T11:56:25.631Z,19.86
2022-07-29T11:59:04.972Z,19.86
2022-07-29T12:01:37.683Z,19.85
2022-07-29T12:04:06.881Z,19.88
2022-07-29T12:06:35.075Z,19.87
2022-07-29T12:09:11.223Z,19.82
2022-07-29T12:11:42.397Z,19.77
2022-07-29T12:14:26.867Z,19.71
2022-07-29T12:16:56.723Z,19.67
2022-07-29T12:19:24.489Z,19.66
2022-07-29T12:21:56.734Z,19.60
2022-07-29T12:24:26.914Z,19.58
2022-07-29T12:26:57.448Z,19.55
2022-07-29T12:29:33.920Z,19.53
2022-07-29T12:32:14.298Z,19.46
2022-07-29T12:34:42.969Z,19.36
2022-07-29T12:37:11.482Z,19.35
2022-07-29T12:39:39.544Z,19.35
2022-07-29T12:42:14.914Z,19.37
2022-07-29T12:44:47.323Z,19.35
2022-07-29T12:47:16.547Z,19.38
2022-07-29T12:49:44.285Z,19.39
2022-07-29T12:52:32.147Z,19.40
2022-07-29T12:55:00.053Z,19.39
2022-07-29T12:57:28.467Z,19.42
2022-07-29T13:00:05.394Z,19.41
2022-07-29T13:02:34.504Z,19.44
2022-07-29T13:05:07.480Z,19.44
2022-07-29T13:07:55.790Z,19.43
2022-07-29T13:10:26.000Z,19.48
2022-07-29T13:13:04.562Z,19.50
2022-07-29T13:15:32.377Z,19.50
2022-07-29T13:18:01.965Z,19.48
2022-07-29T13:20:31.690Z,19.51
2022-07-29T13:23:00.707Z,19.53
2022-07-29T13:25:30.264Z,19.53
2022-07-29T13:27:58.267Z,19.51
2022-07-29T13:30:25.970Z,19.50
2022-07-29T13:32:55.750Z,19.48
2022-07-29T13:35:24.758Z,19.47
2022-07-29T13:37:52.331Z,19.51
2022-07-29T13:40:20.007Z,19.52
2022-07-29T13:42:47.658Z,19.57
2022-07-29T13:45:15.680Z,19.60
2022-07-29T13:47:47.639Z,19.67
2022-07-29T13:50:17.299Z,19.77
2022-07-29T13:52:48.924Z,19.83
2022-07-29T13:55:16.632Z,19.92
2022-07-29T13:57:44.319Z,20.02
2022-07-29T14:00:12.944Z,20.13
2022-07-29T14:02:40.767Z,20.23
2022-07-29T14:05:10.686Z,20.31
2022-07-29T14:07:39.572Z,20.35
2022-07-29T14:10:09.780Z,20.41
2022-07-29T14:12:37.767Z,20.48
2022-07-29T14:15:06.322Z,20.57
2022-07-29T14:17:33.918Z,20.64
2022-07-29T14:20:01.612Z,20.72
2022-07-29T14:22:30.255Z,20.82
2022-07-29T14:24:57.878Z,20.90
2022-07-29T14:27:37.842Z,20.99
2022-07-29T14:30:07.751Z,21.12
2022-07-29T14:32:35.313Z,21.19
2022-07-29T14:35:03.323Z,21.25
2022-07-29T14:37:39.952Z,21.31
2022-07-29T14:40:11.239Z,21.37
2022-07-29T14:42:40.360Z,21.40
2022-07-29T14:45:10.267Z,21.41
2022-07-29T14:47:38.990Z,21.49
2022-07-29T14:50:07.850Z,21.56
2022-07-29T14:52:35.783Z,21.70
2022-07-29T14:55:03.824Z,21.83
2022-07-29T14:57:31.571Z,21.93
2022-07-29T15:00:00.660Z,22.04
2022-07-29T15:02:52.277Z,22.15
2022-07-29T15:05:16.191Z,22.25
2022-07-29T15:07:44.111Z,22.29
2022-07-29T15:10:11.866Z,22.36
2022-07-29T15:12:43.449Z,22.42
2022-07-29T15:15:12.482Z,22.48
2022-07-29T15:17:40.186Z,22.58
2022-07-29T15:20:08.704Z,22.74
2022-07-29T15:22:36.344Z,22.85
2022-07-29T15:25:04.042Z,22.92
2022-07-29T15:27:31.696Z,22.99
2022-07-29T15:29:59.436Z,23.05
2022-07-29T15:32:28.500Z,23.11
2022-07-29T15:34:56.283Z,23.18
2022-07-29T15:37:24.015Z,23.32
2022-07-29T15:39:51.669Z,23.52
2022-07-29T15:42:19.276Z,23.72
2022-07-29T15:44:47.041Z,23.82
2022-07-29T15:47:14.613Z,24.00
2022-07-29T15:49:48.149Z,24.16
2022-07-29T15:52:18.743Z,24.32
2022-07-29T15:54:46.565Z,24.48
2022-07-29T15:57:14.450Z,24.66
2022-07-29T15:59:42.180Z,24.82
2022-07-29T16:02:11.121Z,24.88
2022-07-29T16:04:38.937Z,24.87
2022-07-29T16:07:08.102Z,24.84
2022-07-29T16:09:35.883Z,24.82
2022-07-29T16:12:10.533Z,24.77
2022-07-29T16:14:43.896Z,24.72
2022-07-29T16:17:14.878Z,24.69
2022-07-29T16:19:43.005Z,24.68
2022-07-29T16:22:12.875Z,24.63
2022-07-29T16:24:41.604Z,24.60
2022-07-29T16:27:09.364Z,24.55
2022-07-29T16:29:37.628Z,24.48
2022-07-29T16:32:06.144Z,24.42
2022-07-29T16:34:34.216Z,24.39
2022-07-29T16:37:02.184Z,24.33
2022-07-29T16:39:31.425Z,24.31
2022-07-29T16:42:01.509Z,24.31
2022-07-29T16:44:30.763Z,24.27
2022-07-29T16:47:00.014Z,24.19
2022-07-29T16:49:28.226Z,24.17
2022-07-29T16:51:55.897Z,24.16
2022-07-29T16:54:23.617Z,24.06
2022-07-29T16:56:52.734Z,24.01
2022-07-29T16:59:20.491Z,23.95
2022-07-29T17:01:48.503Z,23.93
2022-07-29T17:04:16.221Z,23.89
2022-07-29T17:06:43.860Z,23.85
2022-07-29T17:09:14.941Z,23.83
2022-07-29T17:11:53.111Z,23.80
2022-07-29T17:14:25.900Z,23.73
2022-07-29T17:17:00.893Z,23.69
2022-07-29T17:19:30.596Z,23.58
2022-07-29T17:22:05.003Z,23.54
2022-07-29T17:24:36.870Z,23.50
2022-07-29T17:27:06.405Z,23.42
2022-07-29T17:29:35.884Z,23.36
2022-07-29T17:32:03.773Z,23.32
2022-07-29T17:34:31.638Z,23.29
2022-07-29T17:36:59.631Z,23.27
2022-07-29T17:39:27.474Z,23.19
2022-07-29T17:41:55.136Z,23.16
2022-07-29T17:44:22.783Z,23.12
2022-07-29T17:46:51.817Z,23.09
2022-07-29T17:49:19.615Z,23.01
2022-07-29T17:51:47.450Z,22.96
2022-07-29T17:54:15.213Z,22.96
2022-07-29T17:56:42.846Z,22.91
2022-07-29T17:59:10.828Z,22.90
2022-07-29T18:01:40.068Z,22.85
2022-07-29T18:04:09.388Z,22.82
2022-07-29T18:06:37.214Z,22.80
2022-07-29T18:09:05.301Z,22.76
2022-07-29T18:11:32.978Z,22.70
2022-07-29T18:14:02.321Z,22.66
2022-07-29T18:16:30.287Z,22.61
2022-07-29T18:18:58.065Z,22.56
2022-07-29T18:21:45.698Z,22.51
2022-07-29T18:24:16.577Z,22.46
2022-07-29T18:26:44.407Z,22.42
2022-07-29T18:29:12.328Z,22.37
2022-07-29T18:31:41.038Z,22.33
2022-07-29T18:34:09.128Z,22.27
2022-07-29T18:36:38.183Z,22.22
2022-07-29T18:39:05.907Z,22.18
2022-07-29T18:41:33.500Z,22.15
2022-07-29T18:44:01.563Z,22.10
2022-07-29T18:46:30.754Z,22.07
2022-07-29T18:49:00.117Z,22.04
2022-07-29T18:51:27.994Z,22.02
2022-07-29T18:53:56.946Z,21.96
2022-07-29T18:56:24.584Z,21.95
2022-07-29T18:58:52.272Z,21.90
2022-07-29T19:01:19.897Z,21.87
2022-07-29T19:03:47.578Z,21.84
2022-07-29T19:06:15.453Z,21.80
2022-07-29T19:08:43.118Z,21.76
2022-07-29T19:11:12.752Z,21.72
2022-07-29T19:13:41.731Z,21.68
2022-07-29T19:16:12.818Z,21.64
2022-07-29T19:18:40.841Z,21.56
2022-07-29T19:21:08.703Z,21.47
2022-07-29T19:24:00.081Z,21.35
2022-07-29T19:26:26.409Z,21.18
2022-07-29T19:28:54.542Z,21.10
2022-07-29T19:31:22.234Z,21.03
2022-07-29T19:33:49.922Z,20.92
2022-07-29T19:36:17.602Z,20.82
2022-07-29T19:38:45.654Z,20.75
2022-07-29T19:41:13.899Z,20.68
2022-07-29T19:43:51.687Z,20.57
2022-07-29T19:46:20.616Z,20.48
2022-07-29T19:48:48.516Z,20.40
2022-07-29T19:51:16.596Z,20.32
2022-07-29T19:53:44.512Z,20.23
2022-07-29T19:56:12.283Z,20.16
2022-07-29T19:58:40.759Z,20.06
2022-07-29T20:01:10.962Z,19.96
2022-07-29T20:03:39.575Z,19.88
2022-07-29T20:06:07.457Z,19.84
2022-07-29T20:08:35.182Z,19.77
2022-07-29T20:11:03.018Z,19.71
2022-07-29T20:13:31.660Z,19.66
2022-07-29T20:15:59.759Z,19.62
2022-07-29T20:18:28.933Z,19.55
2022-07-29T20:20:57.463Z,19.53
2022-07-29T20:23:25.281Z,19.45
2022-07-29T20:25:54.042Z,19.33
2022-07-29T20:28:23.225Z,19.27
2022-07-29T20:30:50.962Z,19.23
2022-07-29T20:33:18.669Z,19.17
2022-07-29T20:35:48.272Z,19.14
2022-07-29T20:38:18.294Z,19.08
2022-07-29T20:40:46.447Z,18.96
2022-07-29T20:43:14.237Z,18.88
2022-07-29T20:45:42.008Z,18.82
2022-07-29T20:48:10.428Z,18.79
2022-07-29T20:50:38.039Z,18.75
2022-07-29T20:53:07.111Z,18.71
2022-07-29T20:55:34.730Z,18.66
2022-07-29T20:58:02.541Z,18.63
2022-07-29T21:00:30.994Z,18.59
2022-07-29T21:02:58.782Z,18.55
2022-07-29T21:05:27.086Z,18.52
2022-07-29T21:07:58.098Z,18.49
2022-07-29T21:10:28.268Z,18.43
2022-07-29T21:12:56.085Z,18.39
2022-07-29T21:15:23.959Z,18.36
2022-07-29T21:17:59.550Z,18.34
2022-07-29T21:20:28.039Z,18.30
2022-07-29T21:22:55.754Z,18.29
2022-07-29T21:25:24.591Z,18.26
2022-07-29T21:28:10.941Z,18.23
2022-07-29T21:30:38.684Z,18.19
2022-07-29T21:33:06.337Z,18.15
2022-07-29T21:36:06.658Z,18.12
2022-07-29T21:38:21.869Z,18.11
2022-07-29T21:40:51.535Z,18.09
2022-07-29T21:43:20.878Z,17.98
2022-07-29T21:45:50.179Z,17.91
2022-07-29T21:48:18.424Z,17.87
2022-07-29T21:50:47.171Z,17.84
2022-07-29T21:53:15.956Z,17.82
2022-07-29T21:55:43.955Z,17.78
2022-07-29T21:58:12.207Z,17.76
2022-07-29T22:00:41.441Z,17.74
2022-07-29T22:03:09.539Z,17.71
2022-07-29T22:05:37.192Z,17.65
2022-07-29T22:08:05.769Z,17.56
2022-07-29T22:10:34.416Z,17.50
2022-07-29T22:13:02.921Z,17.47
2022-07-29T22:15:31.262Z,17.44
2022-07-29T22:18:00.581Z,17.39
2022-07-29T22:20:28.911Z,17.36
2022-07-29T22:22:56.585Z,17.29
2022-07-29T22:25:24.506Z,17.25
2022-07-29T22:27:52.098Z,17.20
2022-07-29T22:30:19.791Z,17.15
2022-07-29T22:32:47.819Z,17.12
2022-07-29T22:35:17.441Z,17.12
2022-07-29T22:37:45.141Z,17.04
2022-07-29T22:40:13.067Z,16.95
2022-07-29T22:42:41.161Z,16.90
2022-07-29T22:45:10.710Z,16.86
2022-07-29T22:47:48.051Z,16.82
2022-07-29T22:50:17.853Z,16.78
2022-07-29T22:52:45.831Z,16.75
2022-07-29T22:55:13.618Z,16.72
2022-07-29T22:57:41.429Z,16.68
2022-07-29T23:00:10.271Z,16.62
2022-07-29T23:02:38.163Z,16.59
2022-07-29T23:05:06.736Z,16.55
2022-07-29T23:07:36.136Z,16.54
2022-07-29T23:10:04.375Z,16.51
2022-07-29T23:12:32.750Z,16.51
2022-07-29T23:15:00.407Z,16.50
2022-07-29T23:17:28.545Z,16.50
2022-07-29T23:19:56.249Z,16.47
2022-07-29T23:22:24.017Z,16.45
2022-07-29T23:24:52.954Z,16.43
2022-07-29T23:27:20.775Z,16.41
2022-07-29T23:29:48.459Z,16.38
2022-07-29T23:32:16.257Z,16.34
2022-07-29T23:34:44.038Z,16.33
2022-07-29T23:37:11.869Z,16.30
2022-07-29T23:39:39.627Z,16.26
2022-07-29T23:42:08.770Z,16.23
2022-07-29T23:44:36.402Z,16.21
2022-07-29T23:47:04.391Z,16.17
2022-07-29T23:49:32.229Z,16.13
2022-07-29T23:51:59.885Z,16.08
2022-07-29T23:54:27.514Z,16.06
2022-07-29T23:56:57.506Z,16.03
2022-07-29T23:59:26.899Z,16.01
